sensor_id;sensor_type;location;lat;lon;timestamp;temperature;humidity
33269;DHT22;19640;50.944;5.260;2023-05-19T00:00:57;11.30;99.90
33269;DHT22;19640;50.944;5.260;2023-05-19T00:03:24;11.20;99.90
33269;DHT22;19640;50.944;5.260;2023-05-19T00:05:52;11.20;99.90
33269;DHT22;19640;50.944;5.260;2023-05-19T00:08:19;11.00;99.90
33269;DHT22;19640;50.944;5.260;2023-05-19T00:10:45;11.00;99.90
33269;DHT22;19640;50.944;5.260;2023-05-19T00:13:11;10.80;99.90
33269;DHT22;19640;50.944;5.260;2023-05-19T00:15:37;10.70;99.90
33269;DHT22;19640;50.944;5.260;2023-05-19T00:18:03;10.60;99.90
33269;DHT22;19640;50.944;5.260;2023-05-19T00:20:29;10.60;99.90
33269;DHT22;19640;50.944;5.260;2023-05-19T00:22:55;10.60;99.90
33269;DHT22;19640;50.944;5.260;2023-05-19T00:25:20;10.50;99.90
33269;DHT22;19640;50.944;5.260;2023-05-19T00:27:46;10.10;99.90
33269;DHT22;19640;50.944;5.260;2023-05-19T00:30:12;10.00;99.90
33269;DHT22;19640;50.944;5.260;2023-05-19T00:32:38;9.60;99.90
33269;DHT22;19640;50.944;5.260;2023-05-19T00:35:04;9.50;99.90
33269;DHT22;19640;50.944;5.260;2023-05-19T00:37:30;9.30;99.90
33269;DHT22;19640;50.944;5.260;2023-05-19T00:39:55;9.40;99.90
33269;DHT22;19640;50.944;5.260;2023-05-19T00:42:21;9.50;99.90
33269;DHT22;19640;50.944;5.260;2023-05-19T00:44:47;9.70;99.90
33269;DHT22;19640;50.944;5.260;2023-05-19T00:47:13;9.80;99.90
33269;DHT22;19640;50.944;5.260;2023-05-19T00:49:38;9.90;99.90
33269;DHT22;19640;50.944;5.260;2023-05-19T00:52:05;9.90;99.90
33269;DHT22;19640;50.944;5.260;2023-05-19T00:54:32;9.90;99.90
33269;DHT22;19640;50.944;5.260;2023-05-19T00:56:59;10.10;99.90
33269;DHT22;19640;50.944;5.260;2023-05-19T00:59:25;10.20;99.90
33269;DHT22;19640;50.944;5.260;2023-05-19T01:01:52;9.90;99.90
33269;DHT22;19640;50.944;5.260;2023-05-19T01:04:19;9.80;99.90
33269;DHT22;19640;50.944;5.260;2023-05-19T01:06:47;9.90;99.90
33269;DHT22;19640;50.944;5.260;2023-05-19T01:09:15;9.90;99.90
33269;DHT22;19640;50.944;5.260;2023-05-19T01:11:41;10.00;99.90
33269;DHT22;19640;50.944;5.260;2023-05-19T01:14:07;9.90;99.90
33269;DHT22;19640;50.944;5.260;2023-05-19T01:16:39;9.90;99.90
33269;DHT22;19640;50.944;5.260;2023-05-19T01:22:01;9.80;99.90
33269;DHT22;19640;50.944;5.260;2023-05-19T01:25:07;9.90;99.90
33269;DHT22;19640;50.944;5.260;2023-05-19T01:32:53;9.90;99.90
33269;DHT22;19640;50.944;5.260;2023-05-19T01:35:22;9.70;99.90
33269;DHT22;19640;50.944;5.260;2023-05-19T01:37:51;9.70;99.90
33269;DHT22;19640;50.944;5.260;2023-05-19T01:40:20;9.70;99.90
33269;DHT22;19640;50.944;5.260;2023-05-19T01:42:47;9.80;99.90
33269;DHT22;19640;50.944;5.260;2023-05-19T01:45:14;9.80;99.90
33269;DHT22;19640;50.944;5.260;2023-05-19T01:47:42;9.80;99.90
33269;DHT22;19640;50.944;5.260;2023-05-19T01:50:08;9.80;99.90
33269;DHT22;19640;50.944;5.260;2023-05-19T01:52:34;9.80;99.90
33269;DHT22;19640;50.944;5.260;2023-05-19T01:55:00;9.80;99.90
33269;DHT22;19640;50.944;5.260;2023-05-19T02:00:11;9.80;99.90
33269;DHT22;19640;50.944;5.260;2023-05-19T02:17:13;9.70;99.90
33269;DHT22;19640;50.944;5.260;2023-05-19T02:19:42;9.70;99.90
33269;DHT22;19640;50.944;5.260;2023-05-19T02:22:07;9.60;99.90
33269;DHT22;19640;50.944;5.260;2023-05-19T02:24:33;9.50;99.90
33269;DHT22;19640;50.944;5.260;2023-05-19T02:26:59;9.50;99.90
33269;DHT22;19640;50.944;5.260;2023-05-19T02:29:25;9.50;99.90
33269;DHT22;19640;50.944;5.260;2023-05-19T02:31:51;9.60;99.90
33269;DHT22;19640;50.944;5.260;2023-05-19T02:34:16;9.60;99.90
33269;DHT22;19640;50.944;5.260;2023-05-19T02:36:43;9.70;99.90
33269;DHT22;19640;50.944;5.260;2023-05-19T02:39:09;9.70;99.90
33269;DHT22;19640;50.944;5.260;2023-05-19T02:41:36;9.60;99.90
33269;DHT22;19640;50.944;5.260;2023-05-19T02:44:02;9.60;99.90
33269;DHT22;19640;50.944;5.260;2023-05-19T02:46:28;9.50;99.90
33269;DHT22;19640;50.944;5.260;2023-05-19T02:48:54;9.50;99.90
33269;DHT22;19640;50.944;5.260;2023-05-19T02:51:19;9.50;99.90
33269;DHT22;19640;50.944;5.260;2023-05-19T02:53:45;9.50;99.90
33269;DHT22;19640;50.944;5.260;2023-05-19T02:56:10;9.50;99.90
33269;DHT22;19640;50.944;5.260;2023-05-19T02:58:36;9.50;99.90
33269;DHT22;19640;50.944;5.260;2023-05-19T03:01:02;9.40;99.90
33269;DHT22;19640;50.944;5.260;2023-05-19T03:03:28;9.40;99.90
33269;DHT22;19640;50.944;5.260;2023-05-19T03:05:54;9.40;99.90
33269;DHT22;19640;50.944;5.260;2023-05-19T03:08:20;9.30;99.90
33269;DHT22;19640;50.944;5.260;2023-05-19T03:10:46;9.30;99.90
33269;DHT22;19640;50.944;5.260;2023-05-19T03:13:11;9.30;99.90
33269;DHT22;19640;50.944;5.260;2023-05-19T03:15:37;9.20;99.90
33269;DHT22;19640;50.944;5.260;2023-05-19T03:18:03;9.20;99.90
33269;DHT22;19640;50.944;5.260;2023-05-19T03:20:29;9.20;99.90
33269;DHT22;19640;50.944;5.260;2023-05-19T03:22:55;9.30;99.90
33269;DHT22;19640;50.944;5.260;2023-05-19T03:25:21;9.30;99.90
33269;DHT22;19640;50.944;5.260;2023-05-19T03:27:47;9.20;99.90
33269;DHT22;19640;50.944;5.260;2023-05-19T03:30:13;9.10;99.90
33269;DHT22;19640;50.944;5.260;2023-05-19T03:32:39;9.00;99.90
33269;DHT22;19640;50.944;5.260;2023-05-19T03:35:04;8.90;99.90
33269;DHT22;19640;50.944;5.260;2023-05-19T03:37:30;9.10;99.90
33269;DHT22;19640;50.944;5.260;2023-05-19T03:39:59;9.10;99.90
33269;DHT22;19640;50.944;5.260;2023-05-19T03:42:25;9.10;99.90
33269;DHT22;19640;50.944;5.260;2023-05-19T03:44:50;9.00;99.90
33269;DHT22;19640;50.944;5.260;2023-05-19T03:47:16;9.00;99.90
33269;DHT22;19640;50.944;5.260;2023-05-19T03:49:42;8.70;99.90
33269;DHT22;19640;50.944;5.260;2023-05-19T03:52:08;8.70;99.90
33269;DHT22;19640;50.944;5.260;2023-05-19T03:54:34;8.80;99.90
33269;DHT22;19640;50.944;5.260;2023-05-19T03:57:00;8.80;99.90
33269;DHT22;19640;50.944;5.260;2023-05-19T03:59:26;8.70;99.90
33269;DHT22;19640;50.944;5.260;2023-05-19T04:01:52;8.40;99.90
33269;DHT22;19640;50.944;5.260;2023-05-19T04:04:18;8.50;99.90
33269;DHT22;19640;50.944;5.260;2023-05-19T04:06:44;8.40;99.90
33269;DHT22;19640;50.944;5.260;2023-05-19T04:09:13;8.50;99.90
33269;DHT22;19640;50.944;5.260;2023-05-19T04:11:40;8.60;99.90
33269;DHT22;19640;50.944;5.260;2023-05-19T04:14:06;8.70;99.90
33269;DHT22;19640;50.944;5.260;2023-05-19T04:16:32;8.60;99.90
33269;DHT22;19640;50.944;5.260;2023-05-19T04:18:58;8.50;99.90
33269;DHT22;19640;50.944;5.260;2023-05-19T04:21:24;8.50;99.90
33269;DHT22;19640;50.944;5.260;2023-05-19T04:23:50;8.40;99.90
33269;DHT22;19640;50.944;5.260;2023-05-19T04:26:16;8.40;99.90
33269;DHT22;19640;50.944;5.260;2023-05-19T04:28:43;8.40;99.90
33269;DHT22;19640;50.944;5.260;2023-05-19T04:31:12;8.50;99.90
33269;DHT22;19640;50.944;5.260;2023-05-19T04:33:39;8.80;99.90
33269;DHT22;19640;50.944;5.260;2023-05-19T04:36:06;8.80;99.90
33269;DHT22;19640;50.944;5.260;2023-05-19T04:38:36;8.90;99.90
33269;DHT22;19640;50.944;5.260;2023-05-19T04:41:07;9.00;99.90
33269;DHT22;19640;50.944;5.260;2023-05-19T04:43:37;9.20;99.90
33269;DHT22;19640;50.944;5.260;2023-05-19T04:46:08;9.20;99.90
33269;DHT22;19640;50.944;5.260;2023-05-19T04:48:35;9.30;99.90
33269;DHT22;19640;50.944;5.260;2023-05-19T04:51:00;9.40;99.90
33269;DHT22;19640;50.944;5.260;2023-05-19T04:53:27;9.50;99.90
33269;DHT22;19640;50.944;5.260;2023-05-19T04:55:53;9.60;99.90
33269;DHT22;19640;50.944;5.260;2023-05-19T04:58:19;9.70;99.90
33269;DHT22;19640;50.944;5.260;2023-05-19T05:00:45;9.50;99.90
33269;DHT22;19640;50.944;5.260;2023-05-19T05:03:11;9.50;99.90
33269;DHT22;19640;50.944;5.260;2023-05-19T05:05:39;9.60;99.90
33269;DHT22;19640;50.944;5.260;2023-05-19T05:08:05;9.60;99.90
33269;DHT22;19640;50.944;5.260;2023-05-19T05:10:31;9.60;99.90
33269;DHT22;19640;50.944;5.260;2023-05-19T05:12:57;9.50;99.90
33269;DHT22;19640;50.944;5.260;2023-05-19T05:15:23;9.50;99.90
33269;DHT22;19640;50.944;5.260;2023-05-19T05:17:49;9.70;99.90
33269;DHT22;19640;50.944;5.260;2023-05-19T05:20:15;9.70;99.90
33269;DHT22;19640;50.944;5.260;2023-05-19T05:22:41;9.70;99.90
33269;DHT22;19640;50.944;5.260;2023-05-19T05:25:08;9.70;99.90
33269;DHT22;19640;50.944;5.260;2023-05-19T05:27:33;9.50;99.90
33269;DHT22;19640;50.944;5.260;2023-05-19T05:30:00;9.50;99.90
33269;DHT22;19640;50.944;5.260;2023-05-19T05:32:26;9.40;99.90
33269;DHT22;19640;50.944;5.260;2023-05-19T05:34:52;9.50;99.90
33269;DHT22;19640;50.944;5.260;2023-05-19T05:37:18;9.40;99.90
33269;DHT22;19640;50.944;5.260;2023-05-19T05:39:43;9.60;99.90
33269;DHT22;19640;50.944;5.260;2023-05-19T05:42:09;9.90;99.90
33269;DHT22;19640;50.944;5.260;2023-05-19T05:44:35;9.80;99.90
33269;DHT22;19640;50.944;5.260;2023-05-19T05:47:02;9.70;99.90
33269;DHT22;19640;50.944;5.260;2023-05-19T05:49:28;9.90;99.90
33269;DHT22;19640;50.944;5.260;2023-05-19T05:51:54;10.10;99.90
33269;DHT22;19640;50.944;5.260;2023-05-19T05:54:21;10.40;99.90
33269;DHT22;19640;50.944;5.260;2023-05-19T05:56:47;10.50;99.90
33269;DHT22;19640;50.944;5.260;2023-05-19T05:59:14;10.70;99.90
33269;DHT22;19640;50.944;5.260;2023-05-19T06:01:40;11.00;99.90
33269;DHT22;19640;50.944;5.260;2023-05-19T06:04:06;11.00;99.90
33269;DHT22;19640;50.944;5.260;2023-05-19T06:06:32;10.90;99.90
33269;DHT22;19640;50.944;5.260;2023-05-19T06:08:58;11.20;99.90
33269;DHT22;19640;50.944;5.260;2023-05-19T06:11:24;11.20;99.90
33269;DHT22;19640;50.944;5.260;2023-05-19T06:13:50;11.30;99.90
33269;DHT22;19640;50.944;5.260;2023-05-19T06:16:16;11.10;99.90
33269;DHT22;19640;50.944;5.260;2023-05-19T06:18:42;11.00;99.90
33269;DHT22;19640;50.944;5.260;2023-05-19T06:21:08;11.20;99.90
33269;DHT22;19640;50.944;5.260;2023-05-19T06:23:35;11.30;99.90
33269;DHT22;19640;50.944;5.260;2023-05-19T06:26:01;11.30;99.90
33269;DHT22;19640;50.944;5.260;2023-05-19T06:28:27;11.50;99.90
33269;DHT22;19640;50.944;5.260;2023-05-19T06:30:52;11.80;99.90
33269;DHT22;19640;50.944;5.260;2023-05-19T06:33:18;12.10;99.90
33269;DHT22;19640;50.944;5.260;2023-05-19T06:35:43;12.30;99.90
33269;DHT22;19640;50.944;5.260;2023-05-19T06:38:09;13.10;99.90
33269;DHT22;19640;50.944;5.260;2023-05-19T06:40:35;13.60;99.90
33269;DHT22;19640;50.944;5.260;2023-05-19T06:43:01;13.80;99.90
33269;DHT22;19640;50.944;5.260;2023-05-19T06:45:27;14.40;99.90
33269;DHT22;19640;50.944;5.260;2023-05-19T06:47:53;15.80;99.90
33269;DHT22;19640;50.944;5.260;2023-05-19T06:50:22;16.60;99.90
33269;DHT22;19640;50.944;5.260;2023-05-19T06:52:48;18.10;99.90
33269;DHT22;19640;50.944;5.260;2023-05-19T06:55:14;18.10;99.60
33269;DHT22;19640;50.944;5.260;2023-05-19T06:57:40;18.50;99.50
33269;DHT22;19640;50.944;5.260;2023-05-19T07:00:06;18.00;98.40
33269;DHT22;19640;50.944;5.260;2023-05-19T07:02:39;17.80;98.40
33269;DHT22;19640;50.944;5.260;2023-05-19T07:05:05;18.30;98.80
33269;DHT22;19640;50.944;5.260;2023-05-19T07:07:32;18.80;98.10
33269;DHT22;19640;50.944;5.260;2023-05-19T07:09:58;18.80;97.90
33269;DHT22;19640;50.944;5.260;2023-05-19T07:12:24;18.60;96.00
33269;DHT22;19640;50.944;5.260;2023-05-19T07:14:51;19.40;97.80
33269;DHT22;19640;50.944;5.260;2023-05-19T07:17:17;20.10;96.30
33269;DHT22;19640;50.944;5.260;2023-05-19T07:19:42;20.30;95.20
33269;DHT22;19640;50.944;5.260;2023-05-19T07:22:08;18.90;94.50
33269;DHT22;19640;50.944;5.260;2023-05-19T07:24:34;18.50;96.00
33269;DHT22;19640;50.944;5.260;2023-05-19T07:27:00;19.70;94.90
33269;DHT22;19640;50.944;5.260;2023-05-19T07:29:25;20.10;94.00
33269;DHT22;19640;50.944;5.260;2023-05-19T07:31:51;20.30;93.10
33269;DHT22;19640;50.944;5.260;2023-05-19T07:34:24;21.10;93.30
33269;DHT22;19640;50.944;5.260;2023-05-19T07:36:50;22.10;93.10
33269;DHT22;19640;50.944;5.260;2023-05-19T07:39:17;22.20;90.90
33269;DHT22;19640;50.944;5.260;2023-05-19T07:41:42;21.60;93.60
33269;DHT22;19640;50.944;5.260;2023-05-19T07:44:08;20.60;90.80
33269;DHT22;19640;50.944;5.260;2023-05-19T07:46:37;20.30;93.00
33269;DHT22;19640;50.944;5.260;2023-05-19T07:49:03;19.90;91.80
33269;DHT22;19640;50.944;5.260;2023-05-19T07:51:29;20.50;92.50
33269;DHT22;19640;50.944;5.260;2023-05-19T07:53:56;21.00;91.90
33269;DHT22;19640;50.944;5.260;2023-05-19T07:56:21;21.60;90.50
33269;DHT22;19640;50.944;5.260;2023-05-19T07:58:49;21.40;91.40
33269;DHT22;19640;50.944;5.260;2023-05-19T08:01:15;21.00;89.70
33269;DHT22;19640;50.944;5.260;2023-05-19T08:03:40;20.80;91.80
33269;DHT22;19640;50.944;5.260;2023-05-19T08:06:06;20.60;90.60
33269;DHT22;19640;50.944;5.260;2023-05-19T08:08:32;19.70;91.30
33269;DHT22;19640;50.944;5.260;2023-05-19T08:11:01;19.70;92.30
33269;DHT22;19640;50.944;5.260;2023-05-19T08:13:28;18.60;92.00
33269;DHT22;19640;50.944;5.260;2023-05-19T08:15:54;17.80;93.10
33269;DHT22;19640;50.944;5.260;2023-05-19T08:18:24;17.30;93.00
33269;DHT22;19640;50.944;5.260;2023-05-19T08:20:50;17.00;94.60
33269;DHT22;19640;50.944;5.260;2023-05-19T08:23:16;16.90;95.80
33269;DHT22;19640;50.944;5.260;2023-05-19T08:25:42;17.20;95.50
33269;DHT22;19640;50.944;5.260;2023-05-19T08:28:09;17.50;95.90
33269;DHT22;19640;50.944;5.260;2023-05-19T08:30:34;17.30;92.80
33269;DHT22;19640;50.944;5.260;2023-05-19T08:33:00;17.20;94.60
33269;DHT22;19640;50.944;5.260;2023-05-19T08:35:27;17.50;94.60
33269;DHT22;19640;50.944;5.260;2023-05-19T08:37:52;17.50;95.20
33269;DHT22;19640;50.944;5.260;2023-05-19T08:40:19;17.30;93.10
33269;DHT22;19640;50.944;5.260;2023-05-19T08:42:45;17.00;94.50
33269;DHT22;19640;50.944;5.260;2023-05-19T08:45:11;17.30;93.90
33269;DHT22;19640;50.944;5.260;2023-05-19T08:47:38;17.40;93.80
33269;DHT22;19640;50.944;5.260;2023-05-19T08:50:05;17.20;94.30
33269;DHT22;19640;50.944;5.260;2023-05-19T08:52:43;17.20;93.70
33269;DHT22;19640;50.944;5.260;2023-05-19T08:55:18;17.10;92.50
33269;DHT22;19640;50.944;5.260;2023-05-19T08:57:47;17.10;94.10
33269;DHT22;19640;50.944;5.260;2023-05-19T09:00:14;17.00;94.70
33269;DHT22;19640;50.944;5.260;2023-05-19T09:02:40;16.90;94.30
33269;DHT22;19640;50.944;5.260;2023-05-19T09:05:07;16.90;93.90
33269;DHT22;19640;50.944;5.260;2023-05-19T09:07:35;17.20;97.00
33269;DHT22;19640;50.944;5.260;2023-05-19T09:10:02;17.70;94.50
33269;DHT22;19640;50.944;5.260;2023-05-19T09:12:28;17.40;92.20
33269;DHT22;19640;50.944;5.260;2023-05-19T09:14:54;17.40;95.10
33269;DHT22;19640;50.944;5.260;2023-05-19T09:17:21;17.20;93.20
33269;DHT22;19640;50.944;5.260;2023-05-19T09:19:47;17.40;93.60
33269;DHT22;19640;50.944;5.260;2023-05-19T09:22:14;17.40;91.80
33269;DHT22;19640;50.944;5.260;2023-05-19T09:24:41;17.60;93.60
33269;DHT22;19640;50.944;5.260;2023-05-19T09:27:06;17.70;92.50
33269;DHT22;19640;50.944;5.260;2023-05-19T09:29:32;17.70;91.40
33269;DHT22;19640;50.944;5.260;2023-05-19T09:31:58;17.90;92.10
33269;DHT22;19640;50.944;5.260;2023-05-19T09:34:29;17.90;92.30
33269;DHT22;19640;50.944;5.260;2023-05-19T09:36:55;17.90;92.10
33269;DHT22;19640;50.944;5.260;2023-05-19T09:39:24;17.70;92.50
33269;DHT22;19640;50.944;5.260;2023-05-19T09:41:51;18.10;93.80
33269;DHT22;19640;50.944;5.260;2023-05-19T09:44:24;17.90;92.40
33269;DHT22;19640;50.944;5.260;2023-05-19T09:46:54;18.20;92.20
33269;DHT22;19640;50.944;5.260;2023-05-19T09:49:20;18.10;93.80
33269;DHT22;19640;50.944;5.260;2023-05-19T09:51:56;17.70;91.60
33269;DHT22;19640;50.944;5.260;2023-05-19T09:54:23;17.50;95.10
33269;DHT22;19640;50.944;5.260;2023-05-19T09:56:59;17.50;92.20
33269;DHT22;19640;50.944;5.260;2023-05-19T09:59:26;17.70;96.00
33269;DHT22;19640;50.944;5.260;2023-05-19T10:01:54;18.20;94.10
33269;DHT22;19640;50.944;5.260;2023-05-19T10:04:23;18.60;94.60
33269;DHT22;19640;50.944;5.260;2023-05-19T10:06:49;18.30;91.30
33269;DHT22;19640;50.944;5.260;2023-05-19T10:09:26;18.20;95.40
33269;DHT22;19640;50.944;5.260;2023-05-19T10:11:53;18.20;91.60
33269;DHT22;19640;50.944;5.260;2023-05-19T10:14:26;18.10;90.20
33269;DHT22;19640;50.944;5.260;2023-05-19T10:16:54;18.10;90.10
33269;DHT22;19640;50.944;5.260;2023-05-19T10:19:25;18.00;86.60
33269;DHT22;19640;50.944;5.260;2023-05-19T10:21:51;18.40;91.90
33269;DHT22;19640;50.944;5.260;2023-05-19T10:24:18;18.60;93.60
33269;DHT22;19640;50.944;5.260;2023-05-19T10:26:52;18.70;91.30
33269;DHT22;19640;50.944;5.260;2023-05-19T10:29:30;18.50;90.80
33269;DHT22;19640;50.944;5.260;2023-05-19T10:32:00;18.40;88.00
33269;DHT22;19640;50.944;5.260;2023-05-19T10:37:33;18.40;92.10
33269;DHT22;19640;50.944;5.260;2023-05-19T10:40:07;18.90;91.80
33269;DHT22;19640;50.944;5.260;2023-05-19T10:42:50;18.70;89.20
33269;DHT22;19640;50.944;5.260;2023-05-19T10:45:20;18.50;90.90
33269;DHT22;19640;50.944;5.260;2023-05-19T10:47:49;18.00;89.70
33269;DHT22;19640;50.944;5.260;2023-05-19T10:50:16;17.90;90.60
33269;DHT22;19640;50.944;5.260;2023-05-19T10:52:42;18.00;90.80
33269;DHT22;19640;50.944;5.260;2023-05-19T10:55:11;18.00;90.50
33269;DHT22;19640;50.944;5.260;2023-05-19T10:57:55;18.40;90.50
33269;DHT22;19640;50.944;5.260;2023-05-19T11:00:29;18.50;92.00
33269;DHT22;19640;50.944;5.260;2023-05-19T11:03:15;18.30;87.30
33269;DHT22;19640;50.944;5.260;2023-05-19T11:05:42;18.30;89.70
33269;DHT22;19640;50.944;5.260;2023-05-19T11:08:11;18.30;90.20
33269;DHT22;19640;50.944;5.260;2023-05-19T11:10:37;18.60;90.00
33269;DHT22;19640;50.944;5.260;2023-05-19T11:13:04;18.20;90.50
33269;DHT22;19640;50.944;5.260;2023-05-19T11:15:34;18.20;90.30
33269;DHT22;19640;50.944;5.260;2023-05-19T11:18:03;18.40;90.30
33269;DHT22;19640;50.944;5.260;2023-05-19T11:20:29;18.70;94.20
33269;DHT22;19640;50.944;5.260;2023-05-19T11:28:06;19.30;91.50
33269;DHT22;19640;50.944;5.260;2023-05-19T11:30:32;19.00;88.80
33269;DHT22;19640;50.944;5.260;2023-05-19T11:32:58;18.80;90.70
33269;DHT22;19640;50.944;5.260;2023-05-19T11:35:24;18.90;90.70
33269;DHT22;19640;50.944;5.260;2023-05-19T11:37:53;18.60;87.80
33269;DHT22;19640;50.944;5.260;2023-05-19T11:40:20;18.50;89.50
33269;DHT22;19640;50.944;5.260;2023-05-19T11:42:46;18.90;92.00
33269;DHT22;19640;50.944;5.260;2023-05-19T11:45:11;19.30;91.10
33269;DHT22;19640;50.944;5.260;2023-05-19T11:47:37;19.30;90.90
33269;DHT22;19640;50.944;5.260;2023-05-19T11:50:03;19.00;87.80
33269;DHT22;19640;50.944;5.260;2023-05-19T11:52:29;19.00;92.60
33269;DHT22;19640;50.944;5.260;2023-05-19T11:54:59;19.00;88.80
33269;DHT22;19640;50.944;5.260;2023-05-19T11:57:26;19.10;87.20
33269;DHT22;19640;50.944;5.260;2023-05-19T11:59:51;19.20;89.20
33269;DHT22;19640;50.944;5.260;2023-05-19T12:02:25;19.10;91.10
33269;DHT22;19640;50.944;5.260;2023-05-19T12:04:52;18.90;90.80
33269;DHT22;19640;50.944;5.260;2023-05-19T12:07:21;19.00;93.00
33269;DHT22;19640;50.944;5.260;2023-05-19T12:09:48;19.30;91.70
33269;DHT22;19640;50.944;5.260;2023-05-19T12:12:19;19.00;86.90
33269;DHT22;19640;50.944;5.260;2023-05-19T12:14:49;19.10;88.50
33269;DHT22;19640;50.944;5.260;2023-05-19T12:17:19;19.00;90.50
33269;DHT22;19640;50.944;5.260;2023-05-19T12:19:47;19.00;91.70
33269;DHT22;19640;50.944;5.260;2023-05-19T12:22:14;19.00;90.50
33269;DHT22;19640;50.944;5.260;2023-05-19T12:24:41;18.90;91.50
33269;DHT22;19640;50.944;5.260;2023-05-19T12:27:17;19.20;89.20
33269;DHT22;19640;50.944;5.260;2023-05-19T12:29:49;19.30;90.00
33269;DHT22;19640;50.944;5.260;2023-05-19T12:32:16;19.20;85.90
33269;DHT22;19640;50.944;5.260;2023-05-19T12:34:41;19.10;88.30
33269;DHT22;19640;50.944;5.260;2023-05-19T12:37:09;19.00;91.60
33269;DHT22;19640;50.944;5.260;2023-05-19T12:39:35;19.30;92.20
33269;DHT22;19640;50.944;5.260;2023-05-19T12:42:08;19.40;92.90
33269;DHT22;19640;50.944;5.260;2023-05-19T12:44:41;19.30;89.60
33269;DHT22;19640;50.944;5.260;2023-05-19T12:47:07;19.50;89.00
33269;DHT22;19640;50.944;5.260;2023-05-19T12:49:33;19.60;88.60
33269;DHT22;19640;50.944;5.260;2023-05-19T12:52:02;19.60;87.20
33269;DHT22;19640;50.944;5.260;2023-05-19T12:54:32;19.30;89.00
33269;DHT22;19640;50.944;5.260;2023-05-19T12:56:58;19.20;87.50
33269;DHT22;19640;50.944;5.260;2023-05-19T12:59:25;19.60;90.70
33269;DHT22;19640;50.944;5.260;2023-05-19T13:01:57;19.90;90.40
33269;DHT22;19640;50.944;5.260;2023-05-19T13:04:27;20.00;86.70
33269;DHT22;19640;50.944;5.260;2023-05-19T13:06:53;19.50;87.70
33269;DHT22;19640;50.944;5.260;2023-05-19T13:09:19;19.70;85.50
33269;DHT22;19640;50.944;5.260;2023-05-19T13:11:46;19.60;84.00
33269;DHT22;19640;50.944;5.260;2023-05-19T13:14:17;19.70;86.80
33269;DHT22;19640;50.944;5.260;2023-05-19T13:16:44;19.80;86.10
33269;DHT22;19640;50.944;5.260;2023-05-19T13:19:18;19.70;85.80
33269;DHT22;19640;50.944;5.260;2023-05-19T13:21:44;19.60;83.20
33269;DHT22;19640;50.944;5.260;2023-05-19T13:24:12;19.50;86.50
33269;DHT22;19640;50.944;5.260;2023-05-19T13:26:39;19.50;85.30
33269;DHT22;19640;50.944;5.260;2023-05-19T13:29:06;19.50;86.50
33269;DHT22;19640;50.944;5.260;2023-05-19T13:31:31;19.30;87.00
33269;DHT22;19640;50.944;5.260;2023-05-19T13:33:57;19.40;90.70
33269;DHT22;19640;50.944;5.260;2023-05-19T13:36:23;19.80;90.70
33269;DHT22;19640;50.944;5.260;2023-05-19T13:38:49;20.00;88.50
33269;DHT22;19640;50.944;5.260;2023-05-19T13:41:15;20.20;91.20
33269;DHT22;19640;50.944;5.260;2023-05-19T13:43:41;20.00;85.10
33269;DHT22;19640;50.944;5.260;2023-05-19T13:46:07;20.10;89.70
33269;DHT22;19640;50.944;5.260;2023-05-19T13:48:33;20.00;90.50
33269;DHT22;19640;50.944;5.260;2023-05-19T13:50:58;20.00;91.40
33269;DHT22;19640;50.944;5.260;2023-05-19T13:53:24;20.00;88.70
33269;DHT22;19640;50.944;5.260;2023-05-19T13:55:50;19.80;84.50
33269;DHT22;19640;50.944;5.260;2023-05-19T13:58:19;20.00;90.20
33269;DHT22;19640;50.944;5.260;2023-05-19T14:00:45;19.60;84.40
33269;DHT22;19640;50.944;5.260;2023-05-19T14:03:10;19.50;87.30
33269;DHT22;19640;50.944;5.260;2023-05-19T14:05:36;19.90;87.00
33269;DHT22;19640;50.944;5.260;2023-05-19T14:08:02;20.00;89.10
33269;DHT22;19640;50.944;5.260;2023-05-19T14:10:29;20.10;87.60
33269;DHT22;19640;50.944;5.260;2023-05-19T14:12:55;20.30;86.60
33269;DHT22;19640;50.944;5.260;2023-05-19T14:15:24;20.10;86.10
33269;DHT22;19640;50.944;5.260;2023-05-19T14:17:50;20.10;90.00
33269;DHT22;19640;50.944;5.260;2023-05-19T14:20:17;20.10;85.80
33269;DHT22;19640;50.944;5.260;2023-05-19T14:22:44;19.90;84.60
33269;DHT22;19640;50.944;5.260;2023-05-19T14:25:09;19.70;87.30
33269;DHT22;19640;50.944;5.260;2023-05-19T14:27:35;19.50;86.90
33269;DHT22;19640;50.944;5.260;2023-05-19T14:30:01;19.80;88.00
33269;DHT22;19640;50.944;5.260;2023-05-19T14:32:27;19.90;85.00
33269;DHT22;19640;50.944;5.260;2023-05-19T14:34:53;20.00;86.40
33269;DHT22;19640;50.944;5.260;2023-05-19T14:37:19;19.80;83.90
33269;DHT22;19640;50.944;5.260;2023-05-19T14:39:46;19.70;88.20
33269;DHT22;19640;50.944;5.260;2023-05-19T14:42:11;19.50;81.00
33269;DHT22;19640;50.944;5.260;2023-05-19T14:44:37;19.70;86.00
33269;DHT22;19640;50.944;5.260;2023-05-19T14:47:03;19.90;86.30
33269;DHT22;19640;50.944;5.260;2023-05-19T14:49:29;20.30;87.20
33269;DHT22;19640;50.944;5.260;2023-05-19T14:51:55;20.50;86.10
33269;DHT22;19640;50.944;5.260;2023-05-19T14:54:20;20.50;83.70
33269;DHT22;19640;50.944;5.260;2023-05-19T14:56:46;20.30;82.90
33269;DHT22;19640;50.944;5.260;2023-05-19T14:59:12;20.20;81.40
33269;DHT22;19640;50.944;5.260;2023-05-19T15:01:37;20.00;82.00
33269;DHT22;19640;50.944;5.260;2023-05-19T15:04:03;20.00;85.40
33269;DHT22;19640;50.944;5.260;2023-05-19T15:06:29;20.00;86.80
33269;DHT22;19640;50.944;5.260;2023-05-19T15:08:55;20.00;83.40
33269;DHT22;19640;50.944;5.260;2023-05-19T15:11:21;20.00;87.10
33269;DHT22;19640;50.944;5.260;2023-05-19T15:13:46;20.10;87.70
33269;DHT22;19640;50.944;5.260;2023-05-19T15:16:12;20.20;82.90
33269;DHT22;19640;50.944;5.260;2023-05-19T15:18:38;20.00;85.00
33269;DHT22;19640;50.944;5.260;2023-05-19T15:21:04;20.00;84.20
33269;DHT22;19640;50.944;5.260;2023-05-19T15:23:29;20.00;82.30
33269;DHT22;19640;50.944;5.260;2023-05-19T15:25:55;20.00;84.20
33269;DHT22;19640;50.944;5.260;2023-05-19T15:28:21;20.00;85.30
33269;DHT22;19640;50.944;5.260;2023-05-19T15:30:46;19.90;83.40
33269;DHT22;19640;50.944;5.260;2023-05-19T15:33:12;19.90;82.90
33269;DHT22;19640;50.944;5.260;2023-05-19T15:35:38;19.90;85.80
33269;DHT22;19640;50.944;5.260;2023-05-19T15:38:04;19.90;80.70
33269;DHT22;19640;50.944;5.260;2023-05-19T15:40:31;19.80;85.50
33269;DHT22;19640;50.944;5.260;2023-05-19T15:42:57;19.80;86.20
33269;DHT22;19640;50.944;5.260;2023-05-19T15:45:23;19.80;87.40
33269;DHT22;19640;50.944;5.260;2023-05-19T15:47:49;19.90;86.20
33269;DHT22;19640;50.944;5.260;2023-05-19T15:50:14;20.00;85.00
33269;DHT22;19640;50.944;5.260;2023-05-19T15:52:40;19.80;81.80
33269;DHT22;19640;50.944;5.260;2023-05-19T15:55:06;19.70;82.10
33269;DHT22;19640;50.944;5.260;2023-05-19T15:57:32;19.80;82.00
33269;DHT22;19640;50.944;5.260;2023-05-19T15:59:58;19.50;80.10
33269;DHT22;19640;50.944;5.260;2023-05-19T16:02:24;19.40;82.80
33269;DHT22;19640;50.944;5.260;2023-05-19T16:04:49;19.40;82.00
33269;DHT22;19640;50.944;5.260;2023-05-19T16:07:15;19.50;83.10